Terminal Aerodrome Forecast
Issued by NWS Greer, SC

Home | Current Version | Previous Version | Text Only | Print | Product List | Glossary On
Versions: 1 2 3 4 5 6 7 8 9 10 11 12 13 14 15 16 17 18 19 20 21 22 23 24 25 26 27 28 29 30 31 32 33 34 35
000
FTUS42 KGSP 030540
TAFAVL
TAF
KAVL 030540Z 0306/0406 18003KT P6SM OVC100
     FM030900 00000KT 6SM BR OVC035
     FM031300 00000KT P6SM BKN025
     FM031600 17005KT P6SM -SHRA VCTS BKN050CB
     FM032100 11004KT P6SM -SHRA BKN050 PROB30 0321/0323 4SM TSRA
      BKN040CB
     FM040100 10003KT P6SM BKN022
     FM040400 12003KT P6SM BKN008=

USA.gov is the U.S. government's official web portal to all federal, state and local government web resources and services.